createdAt,value
2018-04-27T00:00:46.437Z,100093.97
2018-04-27T00:03:12.752Z,100089.28
2018-04-27T00:05:39.073Z,100080.69
2018-04-27T00:08:06.132Z,100076.72
2018-04-27T00:10:32.414Z,100076.70
2018-04-27T00:12:58.923Z,100075.46
2018-04-27T00:15:25.252Z,100077.63
2018-04-27T00:17:51.577Z,100078.61
2018-04-27T00:20:17.925Z,100084.50
2018-04-27T00:22:44.937Z,100079.08
2018-04-27T00:25:11.299Z,100067.11
2018-04-27T00:27:37.630Z,100064.02
2018-04-27T00:30:04.742Z,100055.53
2018-04-27T00:32:31.179Z,100056.82
2018-04-27T00:34:57.473Z,100051.78
2018-04-27T00:37:23.799Z,100051.88
2018-04-27T00:39:50.165Z,100047.78
2018-04-27T00:42:17.215Z,100053.02
2018-04-27T00:44:44.343Z,100044.77
2018-04-27T00:47:11.414Z,100052.62
2018-04-27T00:49:37.713Z,100047.11
2018-04-27T00:52:04.043Z,100053.28
2018-04-27T00:54:30.331Z,100055.16
2018-04-27T00:56:56.632Z,100061.39
2018-04-27T00:59:23.684Z,100050.00
2018-04-27T01:01:50.759Z,100048.61
2018-04-27T01:04:17.093Z,100055.55
2018-04-27T01:06:43.438Z,100052.78
2018-04-27T01:09:09.766Z,100052.33
2018-04-27T01:11:36.046Z,100051.02
2018-04-27T01:14:03.093Z,100059.00
2018-04-27T01:16:29.367Z,100062.23
2018-04-27T01:18:55.675Z,100065.84
2018-04-27T01:21:21.937Z,100061.63
2018-04-27T01:23:48.305Z,100065.91
2018-04-27T01:26:14.583Z,100061.63
2018-04-27T01:28:40.876Z,100064.98
2018-04-27T01:31:07.889Z,100067.36
2018-04-27T01:33:34.184Z,100062.77
2018-04-27T01:36:00.496Z,100058.11
2018-04-27T01:38:26.821Z,100046.53
2018-04-27T01:40:53.852Z,100043.45
2018-04-27T01:43:20.879Z,100039.36
2018-04-27T01:45:47.185Z,100039.66
2018-04-27T01:48:13.533Z,100037.34
2018-04-27T01:50:39.833Z,100045.00
2018-04-27T01:53:06.149Z,100044.25
2018-04-27T01:55:32.400Z,100046.50
2018-04-27T01:57:58.737Z,100039.97
2018-04-27T02:00:25.027Z,100047.66
2018-04-27T02:02:52.048Z,100046.45
2018-04-27T02:05:18.404Z,100047.86
2018-04-27T02:07:45.458Z,100048.09
2018-04-27T02:10:12.532Z,100047.44
2018-04-27T02:12:38.875Z,100053.50
2018-04-27T02:15:05.231Z,100046.34
2018-04-27T02:17:31.549Z,100045.41
2018-04-27T02:19:57.787Z,100039.71
2018-04-27T02:22:24.122Z,100045.32
2018-04-27T02:24:50.410Z,100036.55
2018-04-27T02:27:16.704Z,100031.14
2018-04-27T02:29:43.008Z,100032.84
2018-04-27T02:32:09.378Z,100019.67
2018-04-27T02:34:36.469Z,100026.30
2018-04-27T02:37:02.780Z,100027.75
2018-04-27T02:39:29.074Z,100034.10
2018-04-27T02:41:55.380Z,100032.40
2018-04-27T02:44:21.642Z,100034.17
2018-04-27T02:46:48.735Z,100041.94
2018-04-27T02:49:15.030Z,100035.91
2018-04-27T02:51:42.060Z,100036.92
2018-04-27T02:54:08.360Z,100029.61
2018-04-27T02:56:34.660Z,100028.51
2018-04-27T02:59:00.908Z,100032.31
2018-04-27T03:01:27.179Z,100035.27
2018-04-27T03:03:53.469Z,100040.91
2018-04-27T03:06:19.755Z,100044.66
2018-04-27T03:08:46.807Z,100039.86
2018-04-27T03:11:13.157Z,100033.42
2018-04-27T03:13:39.462Z,100033.47
2018-04-27T03:16:06.537Z,100041.17
2018-04-27T03:18:32.901Z,100043.73
2018-04-27T03:20:59.232Z,100035.73
2018-04-27T03:23:25.561Z,100038.44
2018-04-27T03:25:51.843Z,100034.06
2018-04-27T03:28:18.965Z,100029.73
2018-04-27T03:30:45.245Z,100028.08
2018-04-27T03:33:11.552Z,100025.34
2018-04-27T03:35:38.632Z,100026.90
2018-04-27T03:38:05.018Z,100028.38
2018-04-27T03:40:31.303Z,100030.02
2018-04-27T03:42:57.652Z,100034.55
2018-04-27T03:45:24.031Z,100038.91
2018-04-27T03:47:50.326Z,100045.76
2018-04-27T03:50:23.647Z,100043.83
2018-04-27T03:52:50.647Z,100035.23
2018-04-27T03:55:16.953Z,100031.44
2018-04-27T03:57:43.212Z,100026.39
2018-04-27T04:00:28.172Z,100025.55
2018-04-27T04:03:13.022Z,100020.37
2018-04-27T04:05:39.439Z,100025.66
2018-04-27T04:08:05.956Z,100026.75
2018-04-27T04:10:33.064Z,100013.68
2018-04-27T04:12:59.344Z,100010.95
2018-04-27T04:15:26.457Z,100016.23
2018-04-27T04:17:52.724Z,100016.98
2018-04-27T04:20:19.799Z,100016.42
2018-04-27T04:22:46.129Z,100021.24
2018-04-27T04:25:12.429Z,100023.14
2018-04-27T04:27:39.477Z,100019.86
2018-04-27T04:30:06.512Z,100015.92
2018-04-27T04:32:33.606Z,100023.59
2018-04-27T04:34:59.940Z,100029.05
2018-04-27T04:37:26.247Z,100032.14
2018-04-27T04:39:53.296Z,100035.16
2018-04-27T04:42:19.574Z,100031.44
2018-04-27T04:44:45.856Z,100028.27
2018-04-27T04:47:12.923Z,100029.95
2018-04-27T04:49:39.562Z,100031.46
2018-04-27T04:52:05.863Z,100029.92
2018-04-27T04:54:32.977Z,100034.24
2018-04-27T04:57:00.027Z,100023.17
2018-04-27T04:59:26.346Z,100030.51
2018-04-27T05:01:52.689Z,100032.59
2018-04-27T05:04:18.986Z,100030.64
2018-04-27T05:06:45.279Z,100031.08
2018-04-27T05:09:12.351Z,100043.45
2018-04-27T05:11:38.649Z,100037.45
2018-04-27T05:14:04.924Z,100043.25
2018-04-27T05:16:31.327Z,100044.37
2018-04-27T05:19:03.431Z,100042.32
2018-04-27T05:21:29.747Z,100047.44
2018-04-27T05:23:56.059Z,100042.56
2018-04-27T05:26:23.072Z,100047.78
2018-04-27T05:28:49.379Z,100042.97
2018-04-27T05:31:24.190Z,100055.77
2018-04-27T05:33:50.486Z,100055.03
2018-04-27T05:36:19.256Z,100057.55
2018-04-27T05:38:45.519Z,100056.41
2018-04-27T05:41:11.795Z,100051.34
2018-04-27T05:43:38.095Z,100045.32
2018-04-27T05:46:04.419Z,100046.42
2018-04-27T05:48:30.748Z,100049.27
2018-04-27T05:50:57.052Z,100044.45
2018-04-27T05:53:24.119Z,100043.94
2018-04-27T05:55:51.157Z,100048.47
2018-04-27T05:58:17.499Z,100040.56
2018-04-27T06:00:43.805Z,100038.61
2018-04-27T06:03:10.161Z,100051.95
2018-04-27T06:05:37.179Z,100043.05
2018-04-27T06:08:03.472Z,100049.03
2018-04-27T06:10:29.788Z,100044.86
2018-04-27T06:12:56.106Z,100042.66
2018-04-27T06:15:22.392Z,100040.34
2018-04-27T06:17:48.667Z,100037.30
2018-04-27T06:20:15.051Z,100029.66
2018-04-27T06:22:45.278Z,100028.75
2018-04-27T06:25:11.641Z,100025.05
2018-04-27T06:27:38.665Z,100028.22
2018-04-27T06:30:05.015Z,100021.62
2018-04-27T06:32:32.284Z,100025.20
2018-04-27T06:34:58.602Z,100025.63
2018-04-27T06:37:25.669Z,100018.45
2018-04-27T06:39:52.050Z,100018.19
2018-04-27T06:42:18.395Z,100023.33
2018-04-27T06:44:44.703Z,100020.08
2018-04-27T06:47:11.008Z,100015.85
2018-04-27T06:49:37.306Z,100014.70
2018-04-27T06:52:04.342Z,100013.45
2018-04-27T06:54:31.376Z,100004.81
2018-04-27T06:56:57.649Z,99997.72
2018-04-27T06:59:24.003Z,100001.58
2018-04-27T07:01:51.039Z,100003.91
2018-04-27T07:04:17.372Z,99991.91
2018-04-27T07:06:43.722Z,99988.67
2018-04-27T07:09:10.030Z,99988.64
2018-04-27T07:11:36.329Z,99986.51
2018-04-27T07:14:02.604Z,99982.77
2018-04-27T07:16:28.890Z,99991.68
2018-04-27T07:18:55.933Z,99997.41
2018-04-27T07:21:22.234Z,99993.91
2018-04-27T07:23:48.507Z,99988.23
2018-04-27T07:26:15.593Z,99981.23
2018-04-27T07:28:41.927Z,99982.36
2018-04-27T07:31:08.162Z,99979.00
2018-04-27T07:33:34.464Z,99983.31
2018-04-27T07:36:00.722Z,99985.95
2018-04-27T07:38:27.037Z,99985.28
2018-04-27T07:40:53.301Z,99987.02
2018-04-27T07:43:19.556Z,99988.69
2018-04-27T07:45:46.631Z,99984.77
2018-04-27T07:48:12.916Z,99986.72
2018-04-27T07:50:39.217Z,99992.25
2018-04-27T07:53:05.514Z,99988.32
2018-04-27T07:55:31.833Z,99988.78
2018-04-27T07:57:58.875Z,99983.59
2018-04-27T08:00:25.927Z,99988.28
2018-04-27T08:02:52.947Z,99990.36
2018-04-27T08:05:19.310Z,99983.08
2018-04-27T08:07:46.319Z,99979.95
2018-04-27T08:10:12.618Z,99977.95
2018-04-27T08:12:38.918Z,99977.32
2018-04-27T08:15:05.252Z,99972.99
2018-04-27T08:17:32.361Z,99974.73
2018-04-27T08:19:58.671Z,99974.20
2018-04-27T08:22:24.994Z,99975.16
2018-04-27T08:24:51.332Z,99976.10
2018-04-27T08:27:17.746Z,99976.14
2018-04-27T08:29:44.040Z,99972.77
2018-04-27T08:32:10.325Z,99966.25
2018-04-27T08:34:36.594Z,99972.17
2018-04-27T08:37:02.876Z,99968.38
2018-04-27T08:39:29.150Z,99969.30
2018-04-27T08:41:55.486Z,99971.59
2018-04-27T08:44:28.781Z,99956.36
2018-04-27T08:46:55.081Z,99961.00
2018-04-27T08:49:21.376Z,99962.23
2018-04-27T08:51:47.720Z,99958.81
2018-04-27T08:54:13.996Z,99953.48
2018-04-27T08:56:40.267Z,99946.79
2018-04-27T08:59:06.542Z,99946.28
2018-04-27T09:01:32.830Z,99951.56
2018-04-27T09:03:59.064Z,99944.61
2018-04-27T09:06:25.398Z,99945.66
2018-04-27T09:08:51.832Z,99941.67
2018-04-27T09:11:18.198Z,99943.16
2018-04-27T09:13:44.579Z,99942.50
2018-04-27T09:16:11.743Z,99942.75
2018-04-27T09:18:38.032Z,99942.34
2018-04-27T09:21:04.415Z,99943.38
2018-04-27T09:23:30.721Z,99934.44
2018-04-27T09:25:57.765Z,99919.50
2018-04-27T09:28:24.782Z,99925.98
2018-04-27T09:30:51.103Z,99920.73
2018-04-27T09:33:17.444Z,99926.89
2018-04-27T09:35:43.758Z,99926.84
2018-04-27T09:38:10.042Z,99917.16
2018-04-27T09:40:36.369Z,99912.89
2018-04-27T09:43:03.469Z,99903.73
2018-04-27T09:45:29.824Z,99909.50
2018-04-27T09:48:03.044Z,99906.84
2018-04-27T09:50:29.379Z,99905.64
2018-04-27T09:52:56.495Z,99899.35
2018-04-27T09:55:22.780Z,99891.52
2018-04-27T09:57:49.056Z,99891.69
2018-04-27T10:00:15.349Z,99883.30
2018-04-27T10:02:41.651Z,99877.09
2018-04-27T10:05:08.662Z,99875.14
2018-04-27T10:07:35.011Z,99868.77
2018-04-27T10:10:02.188Z,99858.31
2018-04-27T10:12:28.481Z,99855.05
2018-04-27T10:14:54.885Z,99854.72
2018-04-27T10:17:21.899Z,99844.55
2018-04-27T10:19:48.233Z,99841.66
2018-04-27T10:22:14.542Z,99836.45
2018-04-27T10:24:41.575Z,99841.62
2018-04-27T10:27:08.048Z,99827.32
2018-04-27T10:29:34.415Z,99824.75
2018-04-27T10:32:00.775Z,99821.89
2018-04-27T10:34:27.080Z,99810.52
2018-04-27T10:36:53.356Z,99804.48
2018-04-27T10:39:20.351Z,99796.62
2018-04-27T10:41:46.662Z,99797.50
2018-04-27T10:44:12.974Z,99799.02
2018-04-27T10:46:39.277Z,99797.11
2018-04-27T10:49:05.623Z,99794.25
2018-04-27T10:51:32.665Z,99792.45
2018-04-27T10:53:59.682Z,99785.50
2018-04-27T10:56:25.966Z,99782.30
2018-04-27T10:58:52.254Z,99781.84
2018-04-27T11:01:18.522Z,99782.47
2018-04-27T11:03:44.817Z,99773.41
2018-04-27T11:06:11.224Z,99768.98
2018-04-27T11:08:37.520Z,99765.48
2018-04-27T11:11:03.893Z,99757.19
2018-04-27T11:13:30.138Z,99751.22
2018-04-27T11:15:56.475Z,99754.42
2018-04-27T11:18:22.806Z,99746.23
2018-04-27T11:20:49.070Z,99740.62
2018-04-27T11:23:15.373Z,99735.91
2018-04-27T11:25:42.408Z,99728.98
2018-04-27T11:28:08.693Z,99736.52
2018-04-27T11:30:35.008Z,99734.55
2018-04-27T11:33:01.283Z,99729.92
2018-04-27T11:35:27.567Z,99728.48
2018-04-27T11:37:53.944Z,99726.31
2018-04-27T11:40:20.214Z,99730.25
2018-04-27T11:42:47.270Z,99738.36
2018-04-27T11:45:14.269Z,99724.39
2018-04-27T11:47:40.568Z,99730.03
2018-04-27T11:50:07.628Z,99721.59
2018-04-27T11:52:33.917Z,99721.02
2018-04-27T11:55:00.941Z,99722.86
2018-04-27T11:57:27.266Z,99725.45
2018-04-27T11:59:53.573Z,99735.22
2018-04-27T12:02:19.858Z,99722.67
2018-04-27T12:04:46.951Z,99716.19
2018-04-27T12:07:13.269Z,99713.56
2018-04-27T12:09:39.574Z,99718.98
2018-04-27T12:12:06.614Z,99714.48
2018-04-27T12:14:33.644Z,99703.59
2018-04-27T12:16:59.949Z,99704.77
2018-04-27T12:19:26.217Z,99710.33
2018-04-27T12:21:53.254Z,99709.75
2018-04-27T12:24:19.536Z,99718.68
2018-04-27T12:26:45.833Z,99712.46
2018-04-27T12:29:12.823Z,99703.70
2018-04-27T12:31:39.225Z,99703.75
2018-04-27T12:34:05.470Z,99709.28
2018-04-27T12:36:31.747Z,99711.81
2018-04-27T12:38:58.107Z,99709.20
2018-04-27T12:41:24.313Z,99700.53
2018-04-27T12:43:50.575Z,99693.68
2018-04-27T12:46:16.870Z,99697.56
2018-04-27T12:48:43.148Z,99699.59
2018-04-27T12:51:09.431Z,99697.34
2018-04-27T12:53:35.885Z,99701.02
2018-04-27T12:56:02.128Z,99692.16
2018-04-27T12:58:28.469Z,99681.94
2018-04-27T13:00:57.200Z,99675.52
2018-04-27T13:03:23.470Z,99671.46
2018-04-27T13:05:50.490Z,99669.64
2018-04-27T13:08:16.796Z,99671.49
2018-04-27T13:10:43.148Z,99666.20
2018-04-27T13:13:09.456Z,99664.58
2018-04-27T13:15:36.279Z,99657.84
2018-04-27T13:18:02.644Z,99644.08
2018-04-27T13:20:29.101Z,99649.91
2018-04-27T13:22:56.158Z,99646.07
2018-04-27T13:25:23.150Z,99642.75
2018-04-27T13:27:49.425Z,99641.92
2018-04-27T13:30:15.693Z,99634.89
2018-04-27T13:32:42.083Z,99635.26
2018-04-27T13:35:08.361Z,99630.42
2018-04-27T13:37:34.799Z,99632.23
2018-04-27T13:40:01.079Z,99615.50
2018-04-27T13:42:27.553Z,99617.04
2018-04-27T13:44:53.857Z,99612.19
2018-04-27T13:47:20.855Z,99621.22
2018-04-27T13:49:47.139Z,99606.45
2018-04-27T13:52:14.155Z,99604.13
2018-04-27T13:54:40.446Z,99606.75
2018-04-27T13:57:06.771Z,99600.34
2018-04-27T13:59:33.059Z,99605.02
2018-04-27T14:01:59.343Z,99602.28
2018-04-27T14:04:25.681Z,99594.72
2018-04-27T14:06:51.952Z,99588.56
2018-04-27T14:09:19.056Z,99590.88
2018-04-27T14:11:45.342Z,99574.22
2018-04-27T14:14:12.378Z,99567.39
2018-04-27T14:16:38.694Z,99570.41
2018-04-27T14:19:05.029Z,99568.12
2018-04-27T14:21:31.362Z,99562.41
2018-04-27T14:23:57.642Z,99540.86
2018-04-27T14:26:23.907Z,99544.70
2018-04-27T14:28:50.223Z,99545.58
2018-04-27T14:31:16.500Z,99530.80
2018-04-27T14:33:43.599Z,99520.47
2018-04-27T14:36:10.576Z,99523.70
2018-04-27T14:38:36.893Z,99523.91
2018-04-27T14:41:03.299Z,99518.28
2018-04-27T14:43:29.714Z,99515.89
2018-04-27T14:45:56.075Z,99515.67
2018-04-27T14:48:22.484Z,99510.50
2018-04-27T14:50:48.831Z,99516.36
2018-04-27T14:53:15.163Z,99514.92
2018-04-27T14:55:41.479Z,99508.54
2018-04-27T14:58:07.827Z,99504.29
2018-04-27T15:00:34.160Z,99503.31
2018-04-27T15:03:00.516Z,99501.14
2018-04-27T15:05:26.793Z,99494.86
2018-04-27T15:07:53.839Z,99484.27
2018-04-27T15:10:20.987Z,99490.04
2018-04-27T15:12:48.023Z,99496.67
2018-04-27T15:15:15.093Z,99505.48
2018-04-27T15:17:41.383Z,99487.70
2018-04-27T15:20:07.702Z,99481.51
2018-04-27T15:22:34.006Z,99478.30
2018-04-27T15:25:00.303Z,99472.13
2018-04-27T15:27:27.349Z,99477.20
2018-04-27T15:29:54.427Z,99477.11
2018-04-27T15:32:20.745Z,99470.36
2018-04-27T15:34:47.136Z,99466.95
2018-04-27T15:37:13.430Z,99460.80
2018-04-27T15:39:39.720Z,99460.02
2018-04-27T15:42:06.718Z,99459.78
2018-04-27T15:44:33.020Z,99452.31
2018-04-27T15:46:59.373Z,99452.91
2018-04-27T15:49:25.691Z,99446.31
2018-04-27T15:51:51.970Z,99449.00
2018-04-27T15:54:18.284Z,99441.19
2018-04-27T15:56:44.650Z,99444.68
2018-04-27T15:59:11.811Z,99438.19
2018-04-27T16:01:38.169Z,99434.77
2018-04-27T16:04:04.560Z,99430.20
2018-04-27T16:06:31.637Z,99424.34
2018-04-27T16:08:57.979Z,99414.45
2018-04-27T16:11:24.341Z,99410.22
2018-04-27T16:13:50.662Z,99413.98
2018-04-27T16:16:16.960Z,99415.54
2018-04-27T16:18:43.206Z,99415.75
2018-04-27T16:21:09.496Z,99408.08
2018-04-27T16:23:35.713Z,99405.14
2018-04-27T16:26:01.983Z,99396.94
2018-04-27T16:28:28.247Z,99388.55
2018-04-27T16:30:54.582Z,99387.33
2018-04-27T16:33:20.866Z,99370.55
2018-04-27T16:35:47.276Z,99366.23
2018-04-27T16:38:13.621Z,99372.64
2018-04-27T16:40:40.599Z,99366.13
2018-04-27T16:43:06.903Z,99359.30
2018-04-27T16:45:33.931Z,99351.40
2018-04-27T16:48:00.225Z,99343.03
2018-04-27T16:50:26.564Z,99336.42
2018-04-27T16:52:52.849Z,99328.66
2018-04-27T16:55:19.174Z,99327.36
2018-04-27T16:57:46.193Z,99329.77
2018-04-27T17:00:12.545Z,99337.41
2018-04-27T17:02:39.187Z,99345.80
2018-04-27T17:05:06.195Z,99343.31
2018-04-27T17:07:33.385Z,99353.03
2018-04-27T17:10:00.378Z,99347.63
2018-04-27T17:12:26.644Z,99349.45
2018-04-27T17:14:52.954Z,99345.04
2018-04-27T17:17:19.250Z,99346.48
2018-04-27T17:19:45.569Z,99346.98
2018-04-27T17:22:11.869Z,99343.66
2018-04-27T17:24:38.171Z,99342.83
2018-04-27T17:27:04.455Z,99339.54
2018-04-27T17:29:31.301Z,99337.22
2018-04-27T17:31:58.206Z,99328.20
2018-04-27T17:34:24.571Z,99319.75
2018-04-27T17:36:50.918Z,99321.50
2018-04-27T17:39:17.209Z,99322.91
2018-04-27T17:41:43.602Z,99314.03
2018-04-27T17:44:09.915Z,99315.56
2018-04-27T17:46:36.239Z,99321.08
2018-04-27T17:49:02.528Z,99312.30
2018-04-27T17:51:28.841Z,99320.77
2018-04-27T17:53:55.129Z,99319.03
2018-04-27T17:56:21.436Z,99318.41
2018-04-27T17:58:48.446Z,99320.94
2018-04-27T18:01:14.753Z,99316.33
2018-04-27T18:03:41.043Z,99315.01
2018-04-27T18:06:08.124Z,99322.12
2018-04-27T18:08:34.457Z,99330.17
2018-04-27T18:11:00.802Z,99320.07
2018-04-27T18:13:27.092Z,99317.87
2018-04-27T18:15:54.132Z,99310.30
2018-04-27T18:18:21.188Z,99315.95
2018-04-27T18:20:48.257Z,99314.09
2018-04-27T18:23:14.565Z,99296.27
2018-04-27T18:25:41.664Z,99309.33
2018-04-27T18:28:08.905Z,99310.16
2018-04-27T18:30:35.166Z,99307.58
2018-04-27T18:33:01.468Z,99308.50
2018-04-27T18:35:27.786Z,99298.29
2018-04-27T18:37:54.095Z,99303.96
2018-04-27T18:40:21.141Z,99302.30
2018-04-27T18:42:48.247Z,99300.05
2018-04-27T18:45:14.581Z,99299.87
2018-04-27T18:47:41.634Z,99300.37
2018-04-27T18:50:08.063Z,99299.55
2018-04-27T18:52:34.380Z,99303.30
2018-04-27T18:55:00.663Z,99299.22
2018-04-27T18:57:27.764Z,99303.95
2018-04-27T18:59:54.058Z,99309.89
2018-04-27T19:02:20.390Z,99308.16
2018-04-27T19:04:46.651Z,99304.36
2018-04-27T19:07:12.934Z,99305.45
2018-04-27T19:09:40.797Z,99309.91
2018-04-27T19:12:07.842Z,99308.59
2018-04-27T19:14:34.911Z,99314.55
2018-04-27T19:17:01.238Z,99309.24
2018-04-27T19:19:27.634Z,99307.51
2018-04-27T19:21:53.946Z,99311.05
2018-04-27T19:24:20.239Z,99315.66
2018-04-27T19:26:46.523Z,99309.68
2018-04-27T19:29:12.854Z,99315.36
2018-04-27T19:31:39.258Z,99308.88
2018-04-27T19:34:05.570Z,99310.50
2018-04-27T19:36:31.916Z,99308.50
2018-04-27T19:38:58.221Z,99299.52
2018-04-27T19:41:24.527Z,99303.20
2018-04-27T19:43:50.794Z,99305.98
2018-04-27T19:46:17.107Z,99298.06
2018-04-27T19:48:44.216Z,99292.16
2018-04-27T19:51:10.496Z,99291.33
2018-04-27T19:53:36.783Z,99289.03
2018-04-27T19:56:03.108Z,99293.84
2018-04-27T19:58:29.454Z,99287.45
2018-04-27T20:00:55.777Z,99285.13
2018-04-27T20:03:22.092Z,99278.33
2018-04-27T20:05:48.372Z,99271.74
2018-04-27T20:08:15.398Z,99282.41
2018-04-27T20:10:41.847Z,99269.99
2018-04-27T20:13:10.880Z,99265.68
2018-04-27T20:15:39.811Z,99268.64
2018-04-27T20:18:07.133Z,99264.90
2018-04-27T20:20:33.456Z,99267.75
2018-04-27T20:23:00.676Z,99271.39
2018-04-27T20:25:27.758Z,99276.70
2018-04-27T20:27:54.115Z,99265.73
2018-04-27T20:30:20.443Z,99272.53
2018-04-27T20:32:47.515Z,99270.89
2018-04-27T20:35:14.562Z,99267.02
2018-04-27T20:37:41.690Z,99266.02
2018-04-27T20:40:14.357Z,99257.89
2018-04-27T20:42:42.786Z,99268.39
2018-04-27T20:45:09.883Z,99259.22
2018-04-27T20:47:36.159Z,99255.38
2018-04-27T20:50:04.247Z,99246.75
2018-04-27T20:52:35.488Z,99255.27
2018-04-27T20:55:06.418Z,99257.80
2018-04-27T20:57:33.416Z,99255.23
2018-04-27T20:59:59.786Z,99254.43
2018-04-27T21:02:26.467Z,99256.44
2018-04-27T21:04:53.251Z,99255.50
2018-04-27T21:07:20.044Z,99252.41
2018-04-27T21:09:46.616Z,99248.70
2018-04-27T21:12:12.878Z,99248.63
2018-04-27T21:14:39.190Z,99241.91
2018-04-27T21:17:05.457Z,99243.80
2018-04-27T21:19:31.803Z,99237.77
2018-04-27T21:21:58.125Z,99235.14
2018-04-27T21:24:24.367Z,99234.80
2018-04-27T21:26:50.694Z,99233.41
2018-04-27T21:29:17.818Z,99235.21
2018-04-27T21:31:44.086Z,99229.62
2018-04-27T21:34:10.372Z,99222.07
2018-04-27T21:36:36.663Z,99224.63
2018-04-27T21:39:06.972Z,99226.23
2018-04-27T21:41:49.091Z,99226.96
2018-04-27T21:47:42.712Z,99218.19
2018-04-27T21:50:09.030Z,99217.24
2018-04-27T21:52:50.367Z,99219.96
2018-04-27T21:55:16.683Z,99216.44
2018-04-27T21:58:02.623Z,99219.97
2018-04-27T22:00:28.924Z,99222.02
2018-04-27T22:02:58.124Z,99218.81
2018-04-27T22:08:30.988Z,99224.30
2018-04-27T22:10:58.270Z,99222.05
2018-04-27T22:13:24.576Z,99227.05
2018-04-27T22:15:51.669Z,99222.98
2018-04-27T22:18:17.994Z,99225.38
2018-04-27T22:20:45.102Z,99229.38
2018-04-27T22:23:11.414Z,99233.82
2018-04-27T22:25:38.646Z,99234.15
2018-04-27T22:28:04.925Z,99233.73
2018-04-27T22:30:35.595Z,99234.03
2018-04-27T22:33:30.102Z,99227.62
2018-04-27T22:42:14.530Z,99230.11
2018-04-27T22:44:48.988Z,99227.62
2018-04-27T22:47:19.816Z,99231.56
2018-04-27T22:49:46.881Z,99225.53
2018-04-27T22:52:13.167Z,99230.30
2018-04-27T22:54:39.470Z,99222.69
2018-04-27T23:00:14.429Z,99222.09
2018-04-27T23:02:40.721Z,99219.55
2018-04-27T23:05:10.868Z,99221.20
2018-04-27T23:07:37.165Z,99220.38
2018-04-27T23:10:03.496Z,99220.52
2018-04-27T23:12:29.771Z,99220.02
2018-04-27T23:14:56.115Z,99215.55
2018-04-27T23:17:22.443Z,99216.94
2018-04-27T23:20:04.683Z,99216.71
2018-04-27T23:22:41.423Z,99217.40
2018-04-27T23:25:17.725Z,99213.18
2018-04-27T23:27:45.829Z,99215.19
2018-04-27T23:30:12.156Z,99217.46
2018-04-27T23:32:39.333Z,99215.13
2018-04-27T23:35:05.672Z,99213.81
2018-04-27T23:37:32.046Z,99208.48
2018-04-27T23:39:59.062Z,99212.91
2018-04-27T23:42:25.390Z,99215.69
2018-04-27T23:44:51.723Z,99212.36
2018-04-27T23:47:18.031Z,99203.78
2018-04-27T23:49:44.362Z,99206.89
2018-04-27T23:52:10.704Z,99210.34
2018-04-27T23:54:36.996Z,99208.27
2018-04-27T23:57:03.302Z,99209.80
2018-04-27T23:59:33.314Z,99205.73
